sensor_id;sensor_type;location;lat;lon;timestamp;P1;durP1;ratioP1;P2;durP2;ratioP2
41343;SDS011;27089;50.022;7.604;2022-08-27T00:00:27;24.40;;;18.27;;
41343;SDS011;27089;50.022;7.604;2022-08-27T00:02:54;23.73;;;17.57;;
41343;SDS011;27089;50.022;7.604;2022-08-27T00:05:22;30.33;;;20.60;;
41343;SDS011;27089;50.022;7.604;2022-08-27T00:07:49;27.93;;;20.27;;
41343;SDS011;27089;50.022;7.604;2022-08-27T00:10:17;25.40;;;21.10;;
41343;SDS011;27089;50.022;7.604;2022-08-27T00:12:46;26.83;;;21.03;;
41343;SDS011;27089;50.022;7.604;2022-08-27T00:15:14;25.70;;;20.50;;
41343;SDS011;27089;50.022;7.604;2022-08-27T00:17:42;28.30;;;20.47;;
41343;SDS011;27089;50.022;7.604;2022-08-27T00:20:11;25.50;;;20.57;;
41343;SDS011;27089;50.022;7.604;2022-08-27T00:22:40;27.23;;;21.87;;
41343;SDS011;27089;50.022;7.604;2022-08-27T00:25:08;26.03;;;21.10;;
41343;SDS011;27089;50.022;7.604;2022-08-27T00:27:35;26.70;;;21.53;;
41343;SDS011;27089;50.022;7.604;2022-08-27T00:30:04;26.53;;;20.87;;
41343;SDS011;27089;50.022;7.604;2022-08-27T00:32:33;27.33;;;22.17;;
41343;SDS011;27089;50.022;7.604;2022-08-27T00:35:00;28.50;;;22.17;;
41343;SDS011;27089;50.022;7.604;2022-08-27T00:37:27;29.33;;;21.47;;
41343;SDS011;27089;50.022;7.604;2022-08-27T00:39:55;28.43;;;21.80;;
41343;SDS011;27089;50.022;7.604;2022-08-27T00:42:22;27.00;;;21.13;;
41343;SDS011;27089;50.022;7.604;2022-08-27T00:44:49;27.37;;;21.87;;
41343;SDS011;27089;50.022;7.604;2022-08-27T00:47:17;26.87;;;21.43;;
41343;SDS011;27089;50.022;7.604;2022-08-27T00:49:48;28.23;;;21.00;;
41343;SDS011;27089;50.022;7.604;2022-08-27T00:52:20;30.43;;;21.13;;
41343;SDS011;27089;50.022;7.604;2022-08-27T00:54:50;25.43;;;21.43;;
41343;SDS011;27089;50.022;7.604;2022-08-27T00:57:21;31.00;;;21.97;;
41343;SDS011;27089;50.022;7.604;2022-08-27T00:59:48;24.23;;;20.73;;
41343;SDS011;27089;50.022;7.604;2022-08-27T01:02:15;26.53;;;20.77;;
41343;SDS011;27089;50.022;7.604;2022-08-27T01:04:46;25.07;;;20.23;;
41343;SDS011;27089;50.022;7.604;2022-08-27T01:07:17;27.80;;;20.23;;
41343;SDS011;27089;50.022;7.604;2022-08-27T01:09:46;26.37;;;20.80;;
41343;SDS011;27089;50.022;7.604;2022-08-27T01:12:15;24.63;;;20.63;;
41343;SDS011;27089;50.022;7.604;2022-08-27T01:14:44;28.27;;;21.63;;
41343;SDS011;27089;50.022;7.604;2022-08-27T01:17:12;29.10;;;21.57;;
41343;SDS011;27089;50.022;7.604;2022-08-27T01:19:43;27.33;;;20.50;;
41343;SDS011;27089;50.022;7.604;2022-08-27T01:22:16;27.37;;;21.13;;
41343;SDS011;27089;50.022;7.604;2022-08-27T01:24:52;30.90;;;22.07;;
41343;SDS011;27089;50.022;7.604;2022-08-27T01:27:23;29.60;;;20.93;;
41343;SDS011;27089;50.022;7.604;2022-08-27T01:29:52;30.60;;;21.60;;
41343;SDS011;27089;50.022;7.604;2022-08-27T01:32:21;31.10;;;21.73;;
41343;SDS011;27089;50.022;7.604;2022-08-27T01:34:50;30.57;;;21.43;;
41343;SDS011;27089;50.022;7.604;2022-08-27T01:37:18;27.17;;;20.77;;
41343;SDS011;27089;50.022;7.604;2022-08-27T01:39:46;29.65;;;21.40;;
41343;SDS011;27089;50.022;7.604;2022-08-27T01:42:16;27.23;;;20.60;;
41343;SDS011;27089;50.022;7.604;2022-08-27T01:44:46;28.73;;;20.87;;
41343;SDS011;27089;50.022;7.604;2022-08-27T01:47:16;27.60;;;21.60;;
41343;SDS011;27089;50.022;7.604;2022-08-27T01:49:45;32.30;;;22.17;;
41343;SDS011;27089;50.022;7.604;2022-08-27T01:52:13;29.67;;;21.37;;
41343;SDS011;27089;50.022;7.604;2022-08-27T01:54:43;32.10;;;22.80;;
41343;SDS011;27089;50.022;7.604;2022-08-27T01:57:10;34.70;;;22.73;;
41343;SDS011;27089;50.022;7.604;2022-08-27T01:59:39;29.30;;;22.97;;
41343;SDS011;27089;50.022;7.604;2022-08-27T02:02:07;34.50;;;24.10;;
41343;SDS011;27089;50.022;7.604;2022-08-27T02:04:35;30.80;;;23.37;;
41343;SDS011;27089;50.022;7.604;2022-08-27T02:07:03;32.33;;;23.57;;
41343;SDS011;27089;50.022;7.604;2022-08-27T02:09:30;37.43;;;23.93;;
41343;SDS011;27089;50.022;7.604;2022-08-27T02:11:58;31.53;;;24.10;;
41343;SDS011;27089;50.022;7.604;2022-08-27T02:14:25;32.77;;;24.00;;
41343;SDS011;27089;50.022;7.604;2022-08-27T02:16:54;28.83;;;23.40;;
41343;SDS011;27089;50.022;7.604;2022-08-27T02:19:22;32.00;;;25.30;;
41343;SDS011;27089;50.022;7.604;2022-08-27T02:21:49;28.73;;;24.30;;
41343;SDS011;27089;50.022;7.604;2022-08-27T02:24:16;31.00;;;24.23;;
41343;SDS011;27089;50.022;7.604;2022-08-27T02:26:43;33.03;;;24.77;;
41343;SDS011;27089;50.022;7.604;2022-08-27T02:29:11;31.80;;;24.43;;
41343;SDS011;27089;50.022;7.604;2022-08-27T02:31:38;29.63;;;23.93;;
41343;SDS011;27089;50.022;7.604;2022-08-27T02:34:07;30.93;;;24.30;;
41343;SDS011;27089;50.022;7.604;2022-08-27T02:36:34;31.03;;;24.33;;
41343;SDS011;27089;50.022;7.604;2022-08-27T02:39:02;34.10;;;25.00;;
41343;SDS011;27089;50.022;7.604;2022-08-27T02:41:29;31.17;;;24.27;;
41343;SDS011;27089;50.022;7.604;2022-08-27T02:43:56;32.27;;;25.80;;
41343;SDS011;27089;50.022;7.604;2022-08-27T02:46:23;31.80;;;24.47;;
41343;SDS011;27089;50.022;7.604;2022-08-27T02:48:50;32.97;;;24.40;;
41343;SDS011;27089;50.022;7.604;2022-08-27T02:51:19;30.47;;;24.47;;
41343;SDS011;27089;50.022;7.604;2022-08-27T02:53:46;28.73;;;23.40;;
41343;SDS011;27089;50.022;7.604;2022-08-27T02:56:13;27.30;;;22.57;;
41343;SDS011;27089;50.022;7.604;2022-08-27T02:58:40;26.77;;;22.30;;
41343;SDS011;27089;50.022;7.604;2022-08-27T03:01:07;28.43;;;22.87;;
41343;SDS011;27089;50.022;7.604;2022-08-27T03:03:34;29.13;;;22.97;;
41343;SDS011;27089;50.022;7.604;2022-08-27T03:06:01;27.67;;;22.13;;
41343;SDS011;27089;50.022;7.604;2022-08-27T03:08:30;24.50;;;19.87;;
41343;SDS011;27089;50.022;7.604;2022-08-27T03:10:57;23.50;;;19.93;;
41343;SDS011;27089;50.022;7.604;2022-08-27T03:13:24;24.80;;;20.33;;
41343;SDS011;27089;50.022;7.604;2022-08-27T03:15:52;26.23;;;21.63;;
41343;SDS011;27089;50.022;7.604;2022-08-27T03:18:19;26.23;;;20.27;;
41343;SDS011;27089;50.022;7.604;2022-08-27T03:20:47;25.30;;;20.67;;
41343;SDS011;27089;50.022;7.604;2022-08-27T03:23:16;27.00;;;21.20;;
41343;SDS011;27089;50.022;7.604;2022-08-27T03:25:48;26.53;;;21.53;;
41343;SDS011;27089;50.022;7.604;2022-08-27T03:28:17;25.53;;;21.40;;
41343;SDS011;27089;50.022;7.604;2022-08-27T03:30:46;27.43;;;21.53;;
41343;SDS011;27089;50.022;7.604;2022-08-27T03:33:15;30.13;;;23.23;;
41343;SDS011;27089;50.022;7.604;2022-08-27T03:35:43;31.70;;;23.67;;
41343;SDS011;27089;50.022;7.604;2022-08-27T03:38:11;31.97;;;23.47;;
41343;SDS011;27089;50.022;7.604;2022-08-27T03:40:38;33.17;;;24.93;;
41343;SDS011;27089;50.022;7.604;2022-08-27T03:43:07;32.00;;;24.57;;
41343;SDS011;27089;50.022;7.604;2022-08-27T03:45:35;34.67;;;26.57;;
41343;SDS011;27089;50.022;7.604;2022-08-27T03:48:02;36.57;;;27.70;;
41343;SDS011;27089;50.022;7.604;2022-08-27T03:50:30;37.17;;;27.60;;
41343;SDS011;27089;50.022;7.604;2022-08-27T03:52:58;37.70;;;27.77;;
41343;SDS011;27089;50.022;7.604;2022-08-27T03:55:25;39.87;;;28.80;;
41343;SDS011;27089;50.022;7.604;2022-08-27T03:57:52;39.10;;;28.23;;
41343;SDS011;27089;50.022;7.604;2022-08-27T04:00:21;42.40;;;29.57;;
41343;SDS011;27089;50.022;7.604;2022-08-27T04:02:50;44.70;;;30.40;;
41343;SDS011;27089;50.022;7.604;2022-08-27T04:05:17;43.63;;;30.53;;
41343;SDS011;27089;50.022;7.604;2022-08-27T04:07:44;44.90;;;30.33;;
41343;SDS011;27089;50.022;7.604;2022-08-27T04:10:11;42.83;;;30.70;;
41343;SDS011;27089;50.022;7.604;2022-08-27T04:12:39;48.80;;;31.07;;
41343;SDS011;27089;50.022;7.604;2022-08-27T04:15:07;49.47;;;32.63;;
41343;SDS011;27089;50.022;7.604;2022-08-27T04:17:36;50.73;;;34.17;;
41343;SDS011;27089;50.022;7.604;2022-08-27T04:20:04;50.67;;;34.77;;
41343;SDS011;27089;50.022;7.604;2022-08-27T04:22:33;55.87;;;35.27;;
41343;SDS011;27089;50.022;7.604;2022-08-27T04:25:00;52.60;;;36.30;;
41343;SDS011;27089;50.022;7.604;2022-08-27T04:27:28;61.13;;;39.00;;
41343;SDS011;27089;50.022;7.604;2022-08-27T04:29:56;58.00;;;38.47;;
41343;SDS011;27089;50.022;7.604;2022-08-27T04:32:24;63.67;;;40.77;;
41343;SDS011;27089;50.022;7.604;2022-08-27T04:34:53;59.50;;;38.70;;
41343;SDS011;27089;50.022;7.604;2022-08-27T04:37:21;63.53;;;39.87;;
41343;SDS011;27089;50.022;7.604;2022-08-27T04:39:48;66.10;;;40.17;;
41343;SDS011;27089;50.022;7.604;2022-08-27T04:42:15;63.03;;;39.47;;
41343;SDS011;27089;50.022;7.604;2022-08-27T04:44:43;66.17;;;40.83;;
41343;SDS011;27089;50.022;7.604;2022-08-27T04:47:11;63.90;;;39.43;;
41343;SDS011;27089;50.022;7.604;2022-08-27T04:49:39;63.20;;;40.53;;
41343;SDS011;27089;50.022;7.604;2022-08-27T04:52:08;65.83;;;40.93;;
41343;SDS011;27089;50.022;7.604;2022-08-27T04:54:35;65.37;;;38.67;;
41343;SDS011;27089;50.022;7.604;2022-08-27T04:57:03;63.87;;;40.23;;
41343;SDS011;27089;50.022;7.604;2022-08-27T04:59:31;65.23;;;39.43;;
41343;SDS011;27089;50.022;7.604;2022-08-27T05:02:00;66.30;;;40.67;;
41343;SDS011;27089;50.022;7.604;2022-08-27T05:04:27;68.20;;;40.00;;
41343;SDS011;27089;50.022;7.604;2022-08-27T05:06:54;68.87;;;40.43;;
41343;SDS011;27089;50.022;7.604;2022-08-27T05:09:23;62.67;;;40.07;;
41343;SDS011;27089;50.022;7.604;2022-08-27T05:11:50;63.27;;;38.47;;
41343;SDS011;27089;50.022;7.604;2022-08-27T05:14:18;62.37;;;38.20;;
41343;SDS011;27089;50.022;7.604;2022-08-27T05:16:46;64.03;;;37.83;;
41343;SDS011;27089;50.022;7.604;2022-08-27T05:19:13;63.53;;;37.67;;
41343;SDS011;27089;50.022;7.604;2022-08-27T05:21:42;63.40;;;38.60;;
41343;SDS011;27089;50.022;7.604;2022-08-27T05:24:11;59.33;;;37.40;;
41343;SDS011;27089;50.022;7.604;2022-08-27T05:26:40;61.53;;;37.83;;
41343;SDS011;27089;50.022;7.604;2022-08-27T05:29:08;59.33;;;35.87;;
41343;SDS011;27089;50.022;7.604;2022-08-27T05:31:36;56.27;;;35.40;;
41343;SDS011;27089;50.022;7.604;2022-08-27T05:34:05;54.23;;;33.87;;
41343;SDS011;27089;50.022;7.604;2022-08-27T05:36:33;55.23;;;34.57;;
41343;SDS011;27089;50.022;7.604;2022-08-27T05:39:01;53.23;;;33.57;;
41343;SDS011;27089;50.022;7.604;2022-08-27T05:41:30;56.03;;;34.27;;
41343;SDS011;27089;50.022;7.604;2022-08-27T05:44:00;59.50;;;34.90;;
41343;SDS011;27089;50.022;7.604;2022-08-27T05:46:30;52.67;;;34.37;;
41343;SDS011;27089;50.022;7.604;2022-08-27T05:48:58;47.87;;;31.73;;
41343;SDS011;27089;50.022;7.604;2022-08-27T05:51:26;54.23;;;32.63;;
41343;SDS011;27089;50.022;7.604;2022-08-27T05:53:56;48.53;;;31.77;;
41343;SDS011;27089;50.022;7.604;2022-08-27T05:56:26;48.27;;;30.97;;
41343;SDS011;27089;50.022;7.604;2022-08-27T05:58:55;45.60;;;30.33;;
41343;SDS011;27089;50.022;7.604;2022-08-27T06:01:41;47.23;;;31.33;;
41343;SDS011;27089;50.022;7.604;2022-08-27T06:04:11;44.13;;;30.53;;
41343;SDS011;27089;50.022;7.604;2022-08-27T06:06:39;43.53;;;29.23;;
41343;SDS011;27089;50.022;7.604;2022-08-27T06:09:07;44.20;;;28.80;;
41343;SDS011;27089;50.022;7.604;2022-08-27T06:11:35;48.37;;;29.63;;
41343;SDS011;27089;50.022;7.604;2022-08-27T06:14:03;45.00;;;30.10;;
41343;SDS011;27089;50.022;7.604;2022-08-27T06:16:30;46.00;;;29.97;;
41343;SDS011;27089;50.022;7.604;2022-08-27T06:18:59;41.20;;;28.57;;
41343;SDS011;27089;50.022;7.604;2022-08-27T06:21:26;43.33;;;27.10;;
41343;SDS011;27089;50.022;7.604;2022-08-27T06:23:53;41.53;;;28.33;;
41343;SDS011;27089;50.022;7.604;2022-08-27T06:26:21;42.77;;;28.73;;
41343;SDS011;27089;50.022;7.604;2022-08-27T06:28:49;40.67;;;26.87;;
41343;SDS011;27089;50.022;7.604;2022-08-27T06:31:17;41.97;;;26.57;;
41343;SDS011;27089;50.022;7.604;2022-08-27T06:33:47;39.43;;;25.90;;
41343;SDS011;27089;50.022;7.604;2022-08-27T06:36:17;37.17;;;25.63;;
41343;SDS011;27089;50.022;7.604;2022-08-27T06:38:46;36.90;;;25.37;;
41343;SDS011;27089;50.022;7.604;2022-08-27T06:41:14;37.50;;;26.10;;
41343;SDS011;27089;50.022;7.604;2022-08-27T06:43:43;36.20;;;25.33;;
41343;SDS011;27089;50.022;7.604;2022-08-27T06:46:11;39.17;;;26.53;;
41343;SDS011;27089;50.022;7.604;2022-08-27T06:48:39;37.23;;;25.73;;
41343;SDS011;27089;50.022;7.604;2022-08-27T06:51:09;35.13;;;24.50;;
41343;SDS011;27089;50.022;7.604;2022-08-27T06:53:39;32.37;;;22.73;;
41343;SDS011;27089;50.022;7.604;2022-08-27T06:56:06;34.37;;;24.57;;
41343;SDS011;27089;50.022;7.604;2022-08-27T06:58:35;36.07;;;25.03;;
41343;SDS011;27089;50.022;7.604;2022-08-27T07:01:09;35.20;;;23.00;;
41343;SDS011;27089;50.022;7.604;2022-08-27T07:03:38;38.70;;;25.00;;
41343;SDS011;27089;50.022;7.604;2022-08-27T07:06:05;38.83;;;23.77;;
41343;SDS011;27089;50.022;7.604;2022-08-27T07:08:32;35.47;;;24.00;;
41343;SDS011;27089;50.022;7.604;2022-08-27T07:11:01;34.67;;;22.40;;
41343;SDS011;27089;50.022;7.604;2022-08-27T07:13:29;31.50;;;22.47;;
41343;SDS011;27089;50.022;7.604;2022-08-27T07:15:56;33.40;;;23.33;;
41343;SDS011;27089;50.022;7.604;2022-08-27T07:18:23;33.00;;;23.07;;
41343;SDS011;27089;50.022;7.604;2022-08-27T07:20:51;34.00;;;23.70;;
41343;SDS011;27089;50.022;7.604;2022-08-27T07:23:19;36.47;;;23.93;;
41343;SDS011;27089;50.022;7.604;2022-08-27T07:25:47;36.23;;;23.83;;
41343;SDS011;27089;50.022;7.604;2022-08-27T07:28:15;32.97;;;22.20;;
41343;SDS011;27089;50.022;7.604;2022-08-27T07:30:44;33.47;;;22.93;;
41343;SDS011;27089;50.022;7.604;2022-08-27T07:33:11;32.00;;;22.20;;
41343;SDS011;27089;50.022;7.604;2022-08-27T07:35:38;34.10;;;23.07;;
41343;SDS011;27089;50.022;7.604;2022-08-27T07:38:05;31.57;;;21.43;;
41343;SDS011;27089;50.022;7.604;2022-08-27T07:40:34;31.63;;;21.43;;
41343;SDS011;27089;50.022;7.604;2022-08-27T07:43:03;33.60;;;22.83;;
41343;SDS011;27089;50.022;7.604;2022-08-27T07:45:49;28.27;;;20.20;;
41343;SDS011;27089;50.022;7.604;2022-08-27T07:48:20;28.33;;;19.57;;
41343;SDS011;27089;50.022;7.604;2022-08-27T07:50:47;27.53;;;18.50;;
41343;SDS011;27089;50.022;7.604;2022-08-27T07:53:15;25.33;;;18.87;;
41343;SDS011;27089;50.022;7.604;2022-08-27T07:55:42;28.13;;;18.67;;
41343;SDS011;27089;50.022;7.604;2022-08-27T07:58:09;25.30;;;17.53;;
41343;SDS011;27089;50.022;7.604;2022-08-27T08:00:39;28.83;;;18.17;;
41343;SDS011;27089;50.022;7.604;2022-08-27T08:03:08;25.27;;;17.63;;
41343;SDS011;27089;50.022;7.604;2022-08-27T08:05:35;25.90;;;16.83;;
41343;SDS011;27089;50.022;7.604;2022-08-27T08:08:06;22.50;;;15.23;;
41343;SDS011;27089;50.022;7.604;2022-08-27T08:10:33;21.77;;;15.03;;
41343;SDS011;27089;50.022;7.604;2022-08-27T08:13:01;20.57;;;15.20;;
41343;SDS011;27089;50.022;7.604;2022-08-27T08:15:28;20.10;;;14.33;;
41343;SDS011;27089;50.022;7.604;2022-08-27T08:17:56;20.97;;;14.83;;
41343;SDS011;27089;50.022;7.604;2022-08-27T08:20:24;21.43;;;15.67;;
41343;SDS011;27089;50.022;7.604;2022-08-27T08:22:51;20.90;;;14.93;;
41343;SDS011;27089;50.022;7.604;2022-08-27T08:25:18;20.67;;;14.03;;
41343;SDS011;27089;50.022;7.604;2022-08-27T08:27:45;19.60;;;14.60;;
41343;SDS011;27089;50.022;7.604;2022-08-27T08:30:13;22.00;;;15.10;;
41343;SDS011;27089;50.022;7.604;2022-08-27T08:32:40;24.53;;;15.80;;
41343;SDS011;27089;50.022;7.604;2022-08-27T08:35:08;21.63;;;14.87;;
41343;SDS011;27089;50.022;7.604;2022-08-27T08:37:37;21.83;;;15.00;;
41343;SDS011;27089;50.022;7.604;2022-08-27T08:40:04;19.83;;;14.50;;
41343;SDS011;27089;50.022;7.604;2022-08-27T08:42:36;21.70;;;14.87;;
41343;SDS011;27089;50.022;7.604;2022-08-27T08:45:08;22.83;;;15.40;;
41343;SDS011;27089;50.022;7.604;2022-08-27T08:47:38;20.37;;;14.70;;
41343;SDS011;27089;50.022;7.604;2022-08-27T08:50:11;19.90;;;14.77;;
41343;SDS011;27089;50.022;7.604;2022-08-27T08:52:47;18.80;;;13.90;;
41343;SDS011;27089;50.022;7.604;2022-08-27T08:55:26;19.20;;;14.20;;
41343;SDS011;27089;50.022;7.604;2022-08-27T08:58:06;20.63;;;14.77;;
41343;SDS011;27089;50.022;7.604;2022-08-27T09:00:37;21.10;;;15.27;;
41343;SDS011;27089;50.022;7.604;2022-08-27T09:03:08;20.00;;;15.00;;
41343;SDS011;27089;50.022;7.604;2022-08-27T09:05:36;19.53;;;14.43;;
41343;SDS011;27089;50.022;7.604;2022-08-27T09:08:10;18.87;;;14.77;;
41343;SDS011;27089;50.022;7.604;2022-08-27T09:10:43;20.70;;;15.23;;
41343;SDS011;27089;50.022;7.604;2022-08-27T09:13:18;19.23;;;14.23;;
41343;SDS011;27089;50.022;7.604;2022-08-27T09:15:49;20.50;;;14.83;;
41343;SDS011;27089;50.022;7.604;2022-08-27T09:18:19;22.43;;;16.20;;
41343;SDS011;27089;50.022;7.604;2022-08-27T09:20:48;21.20;;;15.23;;
41343;SDS011;27089;50.022;7.604;2022-08-27T09:23:20;22.60;;;16.73;;
41343;SDS011;27089;50.022;7.604;2022-08-27T09:25:51;25.63;;;17.43;;
41343;SDS011;27089;50.022;7.604;2022-08-27T09:28:19;28.87;;;18.93;;
41343;SDS011;27089;50.022;7.604;2022-08-27T09:31:07;25.97;;;18.73;;
41343;SDS011;27089;50.022;7.604;2022-08-27T09:33:36;23.17;;;17.03;;
41343;SDS011;27089;50.022;7.604;2022-08-27T09:36:06;27.03;;;18.40;;
41343;SDS011;27089;50.022;7.604;2022-08-27T09:38:36;26.87;;;18.00;;
41343;SDS011;27089;50.022;7.604;2022-08-27T09:41:10;29.27;;;19.27;;
41343;SDS011;27089;50.022;7.604;2022-08-27T09:43:55;26.23;;;17.77;;
41343;SDS011;27089;50.022;7.604;2022-08-27T09:46:23;26.50;;;18.90;;
41343;SDS011;27089;50.022;7.604;2022-08-27T09:48:53;26.50;;;17.87;;
41343;SDS011;27089;50.022;7.604;2022-08-27T09:51:21;27.10;;;18.20;;
41343;SDS011;27089;50.022;7.604;2022-08-27T09:53:53;32.77;;;22.13;;
41343;SDS011;27089;50.022;7.604;2022-08-27T09:56:27;38.23;;;24.60;;
41343;SDS011;27089;50.022;7.604;2022-08-27T09:58:59;36.57;;;24.00;;
41343;SDS011;27089;50.022;7.604;2022-08-27T10:01:28;34.13;;;23.60;;
41343;SDS011;27089;50.022;7.604;2022-08-27T10:04:04;36.00;;;24.40;;
41343;SDS011;27089;50.022;7.604;2022-08-27T10:06:33;36.70;;;25.13;;
41343;SDS011;27089;50.022;7.604;2022-08-27T10:09:04;36.37;;;24.80;;
41343;SDS011;27089;50.022;7.604;2022-08-27T10:11:36;34.43;;;24.17;;
41343;SDS011;27089;50.022;7.604;2022-08-27T10:14:10;39.43;;;25.17;;
41343;SDS011;27089;50.022;7.604;2022-08-27T10:16:48;35.73;;;25.77;;
41343;SDS011;27089;50.022;7.604;2022-08-27T10:19:29;39.20;;;26.70;;
41343;SDS011;27089;50.022;7.604;2022-08-27T10:22:19;36.78;;;26.15;;
41343;SDS011;27089;50.022;7.604;2022-08-27T10:25:02;40.90;;;27.07;;
41343;SDS011;27089;50.022;7.604;2022-08-27T10:27:43;38.73;;;27.17;;
41343;SDS011;27089;50.022;7.604;2022-08-27T10:30:18;39.10;;;26.67;;
41343;SDS011;27089;50.022;7.604;2022-08-27T10:32:55;40.83;;;26.57;;
41343;SDS011;27089;50.022;7.604;2022-08-27T10:35:30;42.30;;;28.23;;
41343;SDS011;27089;50.022;7.604;2022-08-27T10:38:06;41.63;;;28.47;;
41343;SDS011;27089;50.022;7.604;2022-08-27T10:40:42;41.30;;;27.07;;
41343;SDS011;27089;50.022;7.604;2022-08-27T10:43:19;42.93;;;28.47;;
41343;SDS011;27089;50.022;7.604;2022-08-27T10:46:13;40.13;;;27.50;;
41343;SDS011;27089;50.022;7.604;2022-08-27T10:49:03;39.63;;;27.13;;
41343;SDS011;27089;50.022;7.604;2022-08-27T10:51:39;42.93;;;27.60;;
41343;SDS011;27089;50.022;7.604;2022-08-27T10:54:15;44.73;;;29.13;;
41343;SDS011;27089;50.022;7.604;2022-08-27T10:56:53;43.13;;;28.20;;
41343;SDS011;27089;50.022;7.604;2022-08-27T10:59:25;46.03;;;28.73;;
41343;SDS011;27089;50.022;7.604;2022-08-27T11:02:02;42.90;;;28.83;;
41343;SDS011;27089;50.022;7.604;2022-08-27T11:04:34;45.13;;;28.87;;
41343;SDS011;27089;50.022;7.604;2022-08-27T11:07:06;44.00;;;27.60;;
41343;SDS011;27089;50.022;7.604;2022-08-27T11:09:40;39.97;;;25.60;;
41343;SDS011;27089;50.022;7.604;2022-08-27T11:12:16;41.00;;;26.73;;
41343;SDS011;27089;50.022;7.604;2022-08-27T11:14:49;42.13;;;25.33;;
41343;SDS011;27089;50.022;7.604;2022-08-27T11:17:20;44.33;;;26.80;;
41343;SDS011;27089;50.022;7.604;2022-08-27T11:19:52;41.67;;;26.17;;
41343;SDS011;27089;50.022;7.604;2022-08-27T11:22:25;45.70;;;26.67;;
41343;SDS011;27089;50.022;7.604;2022-08-27T11:25:00;44.93;;;27.80;;
41343;SDS011;27089;50.022;7.604;2022-08-27T11:27:35;41.70;;;26.40;;
41343;SDS011;27089;50.022;7.604;2022-08-27T11:30:05;42.93;;;29.07;;
41343;SDS011;27089;50.022;7.604;2022-08-27T11:32:38;43.17;;;26.37;;
41343;SDS011;27089;50.022;7.604;2022-08-27T11:35:16;45.57;;;28.13;;
41343;SDS011;27089;50.022;7.604;2022-08-27T11:37:52;42.73;;;25.90;;
41343;SDS011;27089;50.022;7.604;2022-08-27T11:40:46;43.67;;;26.70;;
41343;SDS011;27089;50.022;7.604;2022-08-27T11:43:22;40.80;;;25.63;;
41343;SDS011;27089;50.022;7.604;2022-08-27T11:45:53;46.37;;;27.20;;
41343;SDS011;27089;50.022;7.604;2022-08-27T11:48:24;47.67;;;27.73;;
41343;SDS011;27089;50.022;7.604;2022-08-27T11:50:54;39.67;;;26.10;;
41343;SDS011;27089;50.022;7.604;2022-08-27T11:53:25;39.53;;;26.60;;
41343;SDS011;27089;50.022;7.604;2022-08-27T11:55:54;37.53;;;25.23;;
41343;SDS011;27089;50.022;7.604;2022-08-27T11:58:25;38.23;;;25.93;;
41343;SDS011;27089;50.022;7.604;2022-08-27T12:00:54;38.87;;;25.23;;
41343;SDS011;27089;50.022;7.604;2022-08-27T12:03:23;32.47;;;23.50;;
41343;SDS011;27089;50.022;7.604;2022-08-27T12:08:52;34.20;;;22.97;;
41343;SDS011;27089;50.022;7.604;2022-08-27T12:11:34;35.85;;;24.70;;
41343;SDS011;27089;50.022;7.604;2022-08-27T12:14:08;38.53;;;24.90;;
41343;SDS011;27089;50.022;7.604;2022-08-27T12:16:44;42.17;;;27.33;;
41343;SDS011;27089;50.022;7.604;2022-08-27T12:19:32;38.88;;;26.65;;
41343;SDS011;27089;50.022;7.604;2022-08-27T12:22:17;35.88;;;25.33;;
41343;SDS011;27089;50.022;7.604;2022-08-27T12:24:57;35.37;;;24.23;;
41343;SDS011;27089;50.022;7.604;2022-08-27T12:27:29;34.95;;;24.15;;
41343;SDS011;27089;50.022;7.604;2022-08-27T12:30:00;34.13;;;24.10;;
41343;SDS011;27089;50.022;7.604;2022-08-27T12:32:33;31.27;;;22.63;;
41343;SDS011;27089;50.022;7.604;2022-08-27T12:35:07;34.33;;;23.38;;
41343;SDS011;27089;50.022;7.604;2022-08-27T12:37:37;37.55;;;25.58;;
41343;SDS011;27089;50.022;7.604;2022-08-27T12:40:12;34.42;;;24.40;;
41343;SDS011;27089;50.022;7.604;2022-08-27T12:42:44;35.67;;;24.30;;
41343;SDS011;27089;50.022;7.604;2022-08-27T12:45:18;34.63;;;23.88;;
41343;SDS011;27089;50.022;7.604;2022-08-27T12:47:47;34.60;;;23.77;;
41343;SDS011;27089;50.022;7.604;2022-08-27T12:50:18;33.63;;;23.77;;
41343;SDS011;27089;50.022;7.604;2022-08-27T12:55:52;35.17;;;23.38;;
41343;SDS011;27089;50.022;7.604;2022-08-27T12:58:30;32.37;;;22.70;;
41343;SDS011;27089;50.022;7.604;2022-08-27T13:01:11;28.03;;;20.77;;
41343;SDS011;27089;50.022;7.604;2022-08-27T13:03:49;32.00;;;23.50;;
41343;SDS011;27089;50.022;7.604;2022-08-27T13:06:19;28.93;;;22.53;;
41343;SDS011;27089;50.022;7.604;2022-08-27T13:08:51;31.23;;;23.10;;
41343;SDS011;27089;50.022;7.604;2022-08-27T13:11:20;33.57;;;25.10;;
41343;SDS011;27089;50.022;7.604;2022-08-27T13:13:49;33.50;;;24.87;;
41343;SDS011;27089;50.022;7.604;2022-08-27T13:16:19;34.87;;;25.23;;
41343;SDS011;27089;50.022;7.604;2022-08-27T13:18:47;33.63;;;25.30;;
41343;SDS011;27089;50.022;7.604;2022-08-27T13:21:17;35.80;;;25.70;;
41343;SDS011;27089;50.022;7.604;2022-08-27T13:23:49;33.93;;;24.70;;
41343;SDS011;27089;50.022;7.604;2022-08-27T13:26:20;28.80;;;21.77;;
41343;SDS011;27089;50.022;7.604;2022-08-27T13:28:49;31.20;;;23.67;;
41343;SDS011;27089;50.022;7.604;2022-08-27T13:31:18;34.63;;;24.73;;
41343;SDS011;27089;50.022;7.604;2022-08-27T13:33:47;32.80;;;24.60;;
41343;SDS011;27089;50.022;7.604;2022-08-27T13:36:24;33.53;;;24.77;;
41343;SDS011;27089;50.022;7.604;2022-08-27T13:38:51;30.90;;;21.57;;
41343;SDS011;27089;50.022;7.604;2022-08-27T13:41:21;29.43;;;21.50;;
41343;SDS011;27089;50.022;7.604;2022-08-27T13:43:53;29.47;;;20.80;;
41343;SDS011;27089;50.022;7.604;2022-08-27T13:46:23;30.37;;;22.53;;
41343;SDS011;27089;50.022;7.604;2022-08-27T13:48:53;30.13;;;22.30;;
41343;SDS011;27089;50.022;7.604;2022-08-27T13:51:23;29.87;;;22.40;;
41343;SDS011;27089;50.022;7.604;2022-08-27T13:53:53;32.30;;;22.90;;
41343;SDS011;27089;50.022;7.604;2022-08-27T13:56:38;30.77;;;23.60;;
41343;SDS011;27089;50.022;7.604;2022-08-27T13:59:08;30.17;;;22.90;;
41343;SDS011;27089;50.022;7.604;2022-08-27T14:01:40;32.30;;;25.10;;
41343;SDS011;27089;50.022;7.604;2022-08-27T14:04:08;35.87;;;26.20;;
41343;SDS011;27089;50.022;7.604;2022-08-27T14:06:46;36.67;;;26.47;;
41343;SDS011;27089;50.022;7.604;2022-08-27T14:09:15;33.23;;;24.83;;
41343;SDS011;27089;50.022;7.604;2022-08-27T14:11:43;36.07;;;25.37;;
41343;SDS011;27089;50.022;7.604;2022-08-27T14:14:12;33.43;;;23.97;;
41343;SDS011;27089;50.022;7.604;2022-08-27T14:16:41;33.03;;;23.27;;
41343;SDS011;27089;50.022;7.604;2022-08-27T14:19:09;31.67;;;23.23;;
41343;SDS011;27089;50.022;7.604;2022-08-27T14:21:38;33.17;;;23.70;;
41343;SDS011;27089;50.022;7.604;2022-08-27T14:24:07;32.30;;;24.03;;
41343;SDS011;27089;50.022;7.604;2022-08-27T14:26:34;33.40;;;25.57;;
41343;SDS011;27089;50.022;7.604;2022-08-27T14:29:01;36.27;;;25.47;;
41343;SDS011;27089;50.022;7.604;2022-08-27T14:31:29;35.30;;;25.20;;
41343;SDS011;27089;50.022;7.604;2022-08-27T14:33:57;34.67;;;25.57;;
41343;SDS011;27089;50.022;7.604;2022-08-27T14:36:26;35.53;;;25.73;;
41343;SDS011;27089;50.022;7.604;2022-08-27T14:38:54;35.67;;;26.40;;
41343;SDS011;27089;50.022;7.604;2022-08-27T14:41:21;37.70;;;26.17;;
41343;SDS011;27089;50.022;7.604;2022-08-27T14:43:49;36.00;;;26.27;;